Time;durP1;ratioP1;P1;durP2;ratioP2;P2;SDS_P1;SDS_P2;PMS_P1;PMS_P2;Temp;Humidity;BMP_temperature;BMP_pressure;BME280_temperature;BME280_humidity;BME280_pressure;Samples;Min_cycle;Max_cycle;Signal;HPM_P1;HPM_P2
2022/06/10 00:01:38;;;;;;;19.52;4.45;;;;;;;-145.76;100.00;65039.31;4919176;28;20042;-73
2022/06/10 00:04:04;;;;;;;15.10;4.43;;;;;;;-145.76;100.00;65039.31;4905737;28;20049;-73
2022/06/10 00:06:30;;;;;;;14.00;4.63;;;;;;;-145.76;100.00;65039.31;4934595;28;20038;-72
2022/06/10 00:08:55;;;;;;;8.75;4.40;;;;;;;-145.76;100.00;65039.31;4904864;28;20058;-72
2022/06/10 00:11:21;;;;;;;19.80;5.20;;;;;;;-145.76;100.00;65039.31;4919071;28;20041;-72
2022/06/10 00:13:47;;;;;;;12.07;4.75;;;;;;;-145.76;100.00;65039.31;4919037;28;20041;-74
2022/06/10 00:16:14;;;;;;;15.15;4.78;;;;;;;-145.76;100.00;65039.31;4886098;28;20049;-72
2022/06/10 00:18:40;;;;;;;11.73;4.47;;;;;;;-145.76;100.00;65039.31;4919618;28;20115;-72
2022/06/10 00:21:07;;;;;;;17.30;5.35;;;;;;;-145.76;100.00;65039.31;4869214;28;24697;-73
2022/06/10 00:23:32;;;;;;;15.98;4.90;;;;;;;-145.76;100.00;65039.31;4918202;28;20053;-72
2022/06/10 00:25:58;;;;;;;16.75;4.85;;;;;;;-145.76;100.00;65039.31;4902009;28;20489;-73
2022/06/10 00:28:23;;;;;;;19.17;5.22;;;;;;;-145.76;100.00;65039.31;4917261;28;20573;-72
2022/06/10 00:30:49;;;;;;;10.68;4.85;;;;;;;-145.76;100.00;65039.31;4893774;28;20557;-73
2022/06/10 00:33:15;;;;;;;19.60;4.80;;;;;;;-145.76;100.00;65039.31;4918636;28;20042;-72
2022/06/10 00:35:41;;;;;;;14.63;5.82;;;;;;;-145.76;100.00;65039.31;4918777;28;20116;-73
2022/06/10 00:38:07;;;;;;;28.90;5.32;;;;;;;-145.76;100.00;65039.31;4897026;28;20049;-72
2022/06/10 00:40:39;;;;;;;15.15;5.00;;;;;;;-145.76;100.00;65039.31;4918077;28;20038;-72
2022/06/10 00:43:06;;;;;;;8.68;4.78;;;;;;;-145.76;100.00;65039.31;4899407;28;20049;-73
2022/06/10 00:45:59;;;;;;;13.05;4.75;;;;;;;-145.76;100.00;65039.31;4918659;28;20501;-73
2022/06/10 00:48:49;;;;;;;15.98;4.82;;;;;;;-145.76;100.00;65039.31;4905060;28;20052;-72
2022/06/10 00:51:39;;;;;;;12.25;5.15;;;;;;;-145.76;100.00;65039.31;4915439;28;20074;-72
2022/06/10 00:54:07;;;;;;;11.40;4.80;;;;;;;-145.76;100.00;65039.31;4884959;28;20050;-72
2022/06/10 00:56:32;;;;;;;16.20;5.18;;;;;;;-145.76;100.00;65039.31;4919639;28;20038;-73
2022/06/10 00:59:11;;;;;;;17.50;5.95;;;;;;;-145.76;100.00;65039.31;4901472;28;20087;-73
2022/06/10 01:01:37;;;;;;;15.40;5.35;;;;;;;-145.76;100.00;65039.31;4900672;28;20088;-73
2022/06/10 01:04:03;;;;;;;16.40;5.88;;;;;;;-145.76;100.00;65039.31;4895951;28;20034;-73
2022/06/10 01:06:29;;;;;;;12.95;5.10;;;;;;;-145.76;100.00;65039.31;4887955;28;21269;-73
2022/06/10 01:08:55;;;;;;;20.30;5.85;;;;;;;-145.76;100.00;65039.31;4919827;28;20027;-73
2022/06/10 01:11:38;;;;;;;13.90;5.35;;;;;;;-145.76;100.00;65039.31;4915600;28;20136;-73
2022/06/10 01:14:18;;;;;;;20.60;6.10;;;;;;;-145.76;100.00;65039.31;4914552;28;20050;-74
2022/06/10 01:17:29;;;;;;;14.10;5.78;;;;;;;-145.76;100.00;65039.31;4904044;28;20056;-73
2022/06/10 01:19:57;;;;;;;20.48;7.32;;;;;;;-145.76;100.00;65039.31;4911526;28;20049;-73
2022/06/10 01:22:47;;;;;;;14.80;6.03;;;;;;;-145.76;100.00;65039.31;4901573;28;20152;-73
2022/06/10 01:25:43;;;;;;;18.45;5.82;;;;;;;-145.76;100.00;65039.31;4918572;28;20132;-73
2022/06/10 01:28:15;;;;;;;16.95;6.03;;;;;;;-145.76;100.00;65039.31;4900027;28;20124;-73
2022/06/10 01:30:49;;;;;;;15.55;5.55;;;;;;;-145.76;100.00;65039.31;4916417;28;20034;-73
2022/06/10 01:33:39;;;;;;;16.50;6.68;;;;;;;-145.76;100.00;65039.31;4902350;28;20050;-73
2022/06/10 01:36:13;;;;;;;20.55;5.85;;;;;;;-145.76;100.00;65039.31;4919743;28;20553;-73
2022/06/10 01:38:45;;;;;;;17.52;6.03;;;;;;;-145.76;100.00;65039.31;4902794;28;21120;-73
2022/06/10 01:41:32;;;;;;;12.60;5.43;;;;;;;-145.76;100.00;65039.31;4919026;28;20597;-73
2022/06/10 01:44:16;;;;;;;16.77;6.78;;;;;;;-145.76;100.00;65039.31;4907758;28;20042;-73
2022/06/10 01:46:50;;;;;;;21.50;6.60;;;;;;;-145.76;100.00;65039.31;4922247;28;20045;-73
2022/06/10 01:49:24;;;;;;;14.57;7.10;;;;;;;-145.76;100.00;65039.31;4906870;28;20046;-74
2022/06/10 01:51:58;;;;;;;21.80;8.35;;;;;;;-145.76;100.00;65039.31;4922601;28;20089;-73
2022/06/10 01:54:50;;;;;;;17.52;8.27;;;;;;;-145.76;100.00;65039.31;4908018;28;20058;-73
2022/06/10 01:57:44;;;;;;;18.80;9.35;;;;;;;-145.76;100.00;65039.31;4939955;28;22711;-73
2022/06/10 02:00:14;;;;;;;;;;;;;;;-145.76;100.00;65039.31;4906898;28;20069;-73
2022/06/10 02:02:44;;;;;;;20.10;9.68;;;;;;;-145.76;100.00;65039.31;4921373;28;22272;-74
2022/06/10 02:05:17;;;;;;;27.05;10.00;;;;;;;-145.76;100.00;65039.31;4912867;28;20038;-75
2022/06/10 02:07:47;;;;;;;20.52;9.23;;;;;;;-145.76;100.00;65039.31;4923176;28;20030;-75
2022/06/10 02:10:21;;;;;;;14.40;9.38;;;;;;;-145.76;100.00;65039.31;4919197;28;20057;-73
2022/06/10 02:12:50;;;;;;;;;;;;;;;-145.76;100.00;65039.31;4913154;28;20049;-74
2022/06/10 02:15:28;;;;;;;16.52;9.18;;;;;;;-145.76;100.00;65039.31;4917005;28;19964;-74
2022/06/10 02:18:05;;;;;;;29.20;9.15;;;;;;;-145.76;100.00;65039.31;4901704;28;20131;-73
2022/06/10 02:20:32;;;;;;;24.13;8.88;;;;;;;-145.76;100.00;65039.31;4916550;28;20048;-75
2022/06/10 02:22:58;;;;;;;20.63;8.57;;;;;;;-145.76;100.00;65039.31;4901182;28;20049;-75
2022/06/10 02:25:29;;;;;;;16.02;8.32;;;;;;;-145.76;100.00;65039.31;4901682;28;24353;-73
2022/06/10 02:27:59;;;;;;;19.48;8.80;;;;;;;-145.76;100.00;65039.31;4887668;28;20057;-74
2022/06/10 02:30:46;;;;;;;20.70;9.05;;;;;;;-145.76;100.00;65039.31;4937598;28;20577;-74
2022/06/10 02:33:12;;;;;;;17.83;8.43;;;;;;;-145.76;100.00;65039.31;4902318;28;20081;-74
2022/06/10 02:35:52;;;;;;;20.70;9.82;;;;;;;-145.76;100.00;65039.31;4918155;28;20471;-75
2022/06/10 02:38:31;;;;;;;17.50;9.63;;;;;;;-145.76;100.00;65039.31;4914979;28;20073;-75
2022/06/10 02:41:06;;;;;;;15.27;8.82;;;;;;;-145.76;100.00;65039.31;4921438;28;20185;-75
2022/06/10 02:43:51;;;;;;;25.13;9.75;;;;;;;-145.76;100.00;65039.31;4918412;28;20639;-75
2022/06/10 02:46:31;;;;;;;17.85;9.15;;;;;;;-145.76;100.00;65039.31;4891179;28;20033;-74
2022/06/10 02:49:07;;;;;;;23.02;9.45;;;;;;;-145.76;100.00;65039.31;4922227;28;20072;-74
2022/06/10 02:51:34;;;;;;;20.48;9.00;;;;;;;-145.76;100.00;65039.31;4904860;28;20042;-74
2022/06/10 02:54:01;;;;;;;22.23;10.68;;;;;;;-145.76;100.00;65039.31;4920168;28;20778;-74
2022/06/10 02:56:28;;;;;;;24.48;10.32;;;;;;;-145.76;100.00;65039.31;4904807;28;20057;-74
2022/06/10 03:02:03;;;;;;;17.80;9.70;;;;;;;-145.76;100.00;65039.31;4916657;28;20057;-74
2022/06/10 03:04:44;;;;;;;23.85;10.20;;;;;;;-145.76;100.00;65039.31;4920011;28;20039;-74
2022/06/10 03:07:21;;;;;;;24.88;10.30;;;;;;;-145.76;100.00;65039.31;4901129;28;23888;-75
2022/06/10 03:10:02;;;;;;;22.08;10.02;;;;;;;-145.76;100.00;65039.31;4921505;28;20526;-74
2022/06/10 03:12:37;;;;;;;23.60;10.32;;;;;;;-145.76;100.00;65039.31;4902081;28;20486;-74
2022/06/10 03:15:11;;;;;;;21.05;10.50;;;;;;;-145.76;100.00;65039.31;4920164;28;20138;-74
2022/06/10 03:17:48;;;;;;;19.90;10.05;;;;;;;-145.76;100.00;65039.31;4903763;28;20038;-74
2022/06/10 03:20:34;;;;;;;18.17;9.45;;;;;;;-145.76;100.00;65039.31;4920979;28;20520;-74
2022/06/10 03:23:26;;;;;;;25.88;10.05;;;;;;;-145.76;100.00;65039.31;4913844;28;20280;-74
2022/06/10 03:25:56;;;;;;;25.95;10.68;;;;;;;-145.76;100.00;65039.31;4919512;28;20573;-73
2022/06/10 03:28:30;;;;;;;26.27;10.35;;;;;;;-145.76;100.00;65039.31;4921699;28;20465;-73
2022/06/10 03:31:03;;;;;;;17.95;9.35;;;;;;;-145.76;100.00;65039.31;4909648;28;20077;-73
2022/06/10 03:33:39;;;;;;;28.27;9.68;;;;;;;-145.76;100.00;65039.31;4933912;28;20061;-73
2022/06/10 03:36:08;;;;;;;23.42;9.43;;;;;;;-145.76;100.00;65039.31;4920701;28;20045;-73
2022/06/10 03:38:39;;;;;;;19.00;8.80;;;;;;;-145.76;100.00;65039.31;4921636;28;20065;-73
2022/06/10 03:41:04;;;;;;;20.33;9.88;;;;;;;-145.76;100.00;65039.31;4905118;28;20163;-73
2022/06/10 03:43:35;;;;;;;22.13;9.48;;;;;;;-145.76;100.00;65039.31;4925344;28;20038;-73
2022/06/10 03:46:04;;;;;;;20.92;9.05;;;;;;;-145.76;100.00;65039.31;4903006;28;20135;-73
2022/06/10 03:48:33;;;;;;;19.05;8.77;;;;;;;-145.76;100.00;65039.31;4913471;28;20066;-73
2022/06/10 03:50:58;;;;;;;24.08;9.50;;;;;;;-145.76;100.00;65039.31;4885743;28;20306;-74
2022/06/10 03:53:25;;;;;;;16.92;8.77;;;;;;;-145.76;100.00;65039.31;4919189;28;20502;-73
2022/06/10 03:55:50;;;;;;;20.60;8.77;;;;;;;-145.76;100.00;65039.31;4917767;28;20434;-74
2022/06/10 03:58:18;;;;;;;16.95;8.30;;;;;;;-145.76;100.00;65039.31;4903309;28;20057;-73
2022/06/10 04:00:44;;;;;;;24.33;8.93;;;;;;;-145.76;100.00;65039.31;4919846;28;20034;-73
2022/06/10 04:03:10;;;;;;;22.55;8.25;;;;;;;-145.76;100.00;65039.31;4904452;28;20064;-73
2022/06/10 04:05:36;;;;;;;17.35;8.63;;;;;;;-145.76;100.00;65039.31;4921283;28;20148;-73
2022/06/10 04:08:01;;;;;;;19.88;8.48;;;;;;;-145.76;100.00;65039.31;4894958;28;20038;-73
2022/06/10 04:10:28;;;;;;;18.00;8.48;;;;;;;-145.76;100.00;65039.31;4916701;28;20116;-74
2022/06/10 04:12:54;;;;;;;22.58;8.55;;;;;;;-145.76;100.00;65039.31;4915360;28;20049;-73
2022/06/10 04:15:20;;;;;;;23.30;8.95;;;;;;;-145.76;100.00;65039.31;4904283;28;20593;-73
2022/06/10 04:17:48;;;;;;;21.75;8.32;;;;;;;-145.76;100.00;65039.31;4919547;28;20029;-73
2022/06/10 04:20:22;;;;;;;21.15;8.43;;;;;;;-145.76;100.00;65039.31;4918639;28;20061;-73
2022/06/10 04:22:47;;;;;;;14.68;6.70;;;;;;;-145.76;100.00;65039.31;4920613;28;20041;-73
2022/06/10 04:25:13;;;;;;;21.30;7.97;;;;;;;-145.76;100.00;65039.31;4901148;28;20053;-74
2022/06/10 04:27:39;;;;;;;21.60;8.18;;;;;;;-145.76;100.00;65039.31;4889293;28;20457;-74
2022/06/10 04:30:06;;;;;;;21.02;7.32;;;;;;;-145.76;100.00;65039.31;4908589;28;21005;-73
2022/06/10 04:32:32;;;;;;;17.27;7.35;;;;;;;-145.76;100.00;65039.31;4933026;28;20034;-73
2022/06/10 04:34:57;;;;;;;17.50;6.78;;;;;;;-145.76;100.00;65039.31;4916256;28;20064;-73
2022/06/10 04:37:24;;;;;;;24.42;7.03;;;;;;;-145.76;100.00;65039.31;4906794;28;20065;-73
2022/06/10 04:39:49;;;;;;;22.55;6.78;;;;;;;-145.76;100.00;65039.31;4886524;28;20144;-73
2022/06/10 04:42:15;;;;;;;19.63;6.85;;;;;;;-145.76;100.00;65039.31;4900176;28;20052;-73
2022/06/10 04:44:40;;;;;;;18.75;6.38;;;;;;;-145.76;100.00;65039.31;4915810;28;20038;-73
2022/06/10 04:47:07;;;;;;;14.57;5.57;;;;;;;-145.76;100.00;65039.31;4896466;28;20053;-73
2022/06/10 04:49:33;;;;;;;15.73;6.15;;;;;;;-145.76;100.00;65039.31;4925946;28;22390;-73
2022/06/10 04:51:58;;;;;;;22.20;6.82;;;;;;;-145.76;100.00;65039.31;4897794;28;20488;-73
2022/06/10 04:54:24;;;;;;;20.15;5.25;;;;;;;-145.76;100.00;65039.31;4915193;28;20045;-73
2022/06/10 04:56:50;;;;;;;22.85;5.85;;;;;;;-145.76;100.00;65039.31;4917411;28;20049;-74
2022/06/10 04:59:15;;;;;;;15.65;5.28;;;;;;;-145.76;100.00;65039.31;4904237;28;20053;-73
2022/06/10 05:01:40;;;;;;;18.63;5.25;;;;;;;-145.76;100.00;65039.31;4916472;28;20155;-73
2022/06/10 05:04:06;;;;;;;16.92;5.40;;;;;;;-145.76;100.00;65039.31;4902204;28;20451;-73
2022/06/10 05:06:31;;;;;;;23.20;5.32;;;;;;;-145.76;100.00;65039.31;4915609;28;20503;-73
2022/06/10 05:08:57;;;;;;;17.95;5.07;;;;;;;-145.76;100.00;65039.31;4904305;28;20525;-74
2022/06/10 05:11:23;;;;;;;16.20;4.82;;;;;;;-145.76;100.00;65039.31;4915600;28;20038;-73
2022/06/10 05:13:48;;;;;;;18.70;5.68;;;;;;;-145.76;100.00;65039.31;4909729;28;20064;-74
2022/06/10 05:16:14;;;;;;;14.82;4.93;;;;;;;-145.76;100.00;65039.31;4909351;28;20069;-74
2022/06/10 05:18:39;;;;;;;19.67;4.30;;;;;;;-145.76;100.00;65039.31;4919588;28;20053;-74
2022/06/10 05:21:04;;;;;;;17.42;3.78;;;;;;;-145.76;100.00;65039.31;4921697;28;20631;-74
2022/06/10 05:23:30;;;;;;;9.68;3.30;;;;;;;-145.76;100.00;65039.31;4920048;28;20044;-74
2022/06/10 05:25:55;;;;;;;15.05;3.05;;;;;;;-145.76;100.00;65039.31;4906124;28;21000;-74
2022/06/10 05:28:21;;;;;;;17.65;3.92;;;;;;;-145.76;100.00;65039.31;4922415;28;20033;-74
2022/06/10 05:30:47;;;;;;;17.23;4.07;;;;;;;-145.76;100.00;65039.31;4908642;28;20915;-74
2022/06/10 05:33:13;;;;;;;15.07;3.25;;;;;;;-145.76;100.00;65039.31;4891832;28;20056;-73
2022/06/10 05:35:39;;;;;;;18.58;3.80;;;;;;;-145.76;100.00;65039.31;4921312;28;20139;-74
2022/06/10 05:38:05;;;;;;;20.30;4.20;;;;;;;-145.76;100.00;65039.31;4905817;28;20046;-73
2022/06/10 05:40:31;;;;;;;16.58;4.38;;;;;;;-145.76;100.00;65039.31;4921422;28;20081;-72
2022/06/10 05:42:58;;;;;;;18.92;4.45;;;;;;;-145.76;100.00;65039.31;4906095;28;20080;-72
2022/06/10 05:45:24;;;;;;;15.70;3.60;;;;;;;-145.76;100.00;65039.31;4922330;28;20111;-73
2022/06/10 05:47:55;;;;;;;16.27;4.63;;;;;;;-145.76;100.00;65039.31;4907213;28;23819;-74
2022/06/10 05:50:27;;;;;;;14.88;3.42;;;;;;;-145.76;100.00;65039.31;4939549;28;20835;-73
2022/06/10 05:52:53;;;;;;;14.73;4.32;;;;;;;-145.76;100.00;65039.31;4906505;28;20042;-73
2022/06/10 05:55:20;;;;;;;19.80;4.22;;;;;;;-145.76;100.00;65039.31;4903361;28;20037;-73
2022/06/10 05:57:46;;;;;;;13.73;3.47;;;;;;;-145.76;100.00;65039.31;4923853;28;20037;-73
2022/06/10 06:00:23;;;;;;;13.63;3.28;;;;;;;-145.76;100.00;65039.31;4906038;28;20046;-71
2022/06/10 06:02:49;;;;;;;10.13;3.35;;;;;;;-145.76;100.00;65039.31;4915646;28;20042;-73
2022/06/10 06:05:15;;;;;;;17.00;4.30;;;;;;;-145.76;100.00;65039.31;4906198;28;20132;-72
2022/06/10 06:07:43;;;;;;;18.73;3.58;;;;;;;-145.76;100.00;65039.31;4911472;28;20046;-72
2022/06/10 06:10:12;;;;;;;15.50;3.17;;;;;;;-145.76;100.00;65039.31;4901949;28;20038;-72
2022/06/10 06:12:37;;;;;;;11.50;3.45;;;;;;;-145.76;100.00;65039.31;4930362;28;20046;-72
2022/06/10 06:15:03;;;;;;;14.00;3.40;;;;;;;-145.76;100.00;65039.31;4911211;28;20124;-72
2022/06/10 06:17:28;;;;;;;18.52;3.72;;;;;;;-145.76;100.00;65039.31;4903638;28;20080;-72
2022/06/10 06:19:54;;;;;;;16.30;3.55;;;;;;;-145.76;100.00;65039.31;4912445;28;20042;-73
2022/06/10 06:22:19;;;;;;;16.70;3.85;;;;;;;-145.76;100.00;65039.31;4899137;28;20048;-72
2022/06/10 06:24:45;;;;;;;15.27;4.03;;;;;;;-145.76;100.00;65039.31;4922631;28;20065;-72
2022/06/10 06:27:13;;;;;;;12.10;3.97;;;;;;;-145.76;100.00;65039.31;4908535;28;20191;-72
2022/06/10 06:29:39;;;;;;;12.98;3.53;;;;;;;-145.76;100.00;65039.31;4919325;28;20034;-72
2022/06/10 06:32:05;;;;;;;11.95;3.88;;;;;;;-145.76;100.00;65039.31;4903335;28;20052;-73
2022/06/10 06:34:31;;;;;;;21.25;4.07;;;;;;;-145.76;100.00;65039.31;4919078;28;20045;-72
2022/06/10 06:36:56;;;;;;;16.00;2.90;;;;;;;-145.76;100.00;65039.31;4918849;28;20038;-73
2022/06/10 06:39:25;;;;;;;14.27;3.42;;;;;;;-145.76;100.00;65039.31;4906713;28;20042;-72
2022/06/10 06:41:51;;;;;;;16.30;4.25;;;;;;;-145.76;100.00;65039.31;4917952;28;21113;-73
2022/06/10 06:44:17;;;;;;;17.15;4.45;;;;;;;-145.76;100.00;65039.31;4899854;28;20048;-72
2022/06/10 06:46:43;;;;;;;16.27;3.75;;;;;;;-145.76;100.00;65039.31;4916035;28;20164;-73
2022/06/10 06:49:13;;;;;;;14.65;4.50;;;;;;;-145.76;100.00;65039.31;4906100;28;22563;-72
2022/06/10 06:51:39;;;;;;;18.50;3.85;;;;;;;-145.76;100.00;65039.31;4911401;28;20524;-72
2022/06/10 06:54:06;;;;;;;10.80;2.63;;;;;;;-145.76;100.00;65039.31;4902131;28;20038;-72
2022/06/10 06:56:31;;;;;;;12.55;3.17;;;;;;;-145.76;100.00;65039.31;4918151;28;20046;-72
2022/06/10 06:58:57;;;;;;;12.43;2.55;;;;;;;-145.76;100.00;65039.31;4931853;28;20132;-72
2022/06/10 07:01:23;;;;;;;10.25;2.42;;;;;;;-145.76;100.00;65039.31;4901434;28;20176;-76
2022/06/10 07:03:48;;;;;;;9.98;3.13;;;;;;;-145.76;100.00;65039.31;4882446;28;20066;-73
2022/06/10 07:06:14;;;;;;;16.75;3.50;;;;;;;-145.76;100.00;65039.31;4904353;28;20035;-74
2022/06/10 07:08:40;;;;;;;11.80;2.88;;;;;;;-145.76;100.00;65039.31;4918055;28;20037;-73
2022/06/10 07:11:07;;;;;;;17.33;3.83;;;;;;;-145.76;100.00;65039.31;4900357;28;20600;-73
2022/06/10 07:13:33;;;;;;;21.75;5.15;;;;;;;-145.76;100.00;65039.31;4934396;28;20057;-73
2022/06/10 07:16:00;;;;;;;16.85;4.32;;;;;;;-145.76;100.00;65039.31;4914095;28;20038;-74
2022/06/10 07:18:27;;;;;;;21.83;4.97;;;;;;;-145.76;100.00;65039.31;4909178;28;20151;-74
2022/06/10 07:20:52;;;;;;;17.33;4.15;;;;;;;-145.76;100.00;65039.31;4922686;28;20162;-73
2022/06/10 07:23:19;;;;;;;16.33;3.72;;;;;;;-145.76;100.00;65039.31;4904541;28;21652;-73
2022/06/10 07:25:45;;;;;;;17.77;4.20;;;;;;;-145.76;100.00;65039.31;4919507;28;21307;-73
2022/06/10 07:28:14;;;;;;;18.15;4.50;;;;;;;-145.76;100.00;65039.31;4905635;28;20065;-74
2022/06/10 07:30:40;;;;;;;19.17;4.28;;;;;;;-145.76;100.00;65039.31;4922934;28;20460;-73
2022/06/10 07:33:06;;;;;;;18.05;4.28;;;;;;;-145.76;100.00;65039.31;4896080;28;20176;-73
2022/06/10 07:35:32;;;;;;;14.65;4.45;;;;;;;-145.76;100.00;65039.31;4912362;28;20489;-73
2022/06/10 07:37:58;;;;;;;19.83;4.78;;;;;;;-145.76;100.00;65039.31;4917564;28;20490;-73
2022/06/10 07:43:20;;;;;;;15.13;5.20;;;;;;;-145.76;100.00;65039.31;4904315;28;20033;-73
2022/06/10 07:45:46;;;;;;;14.98;4.88;;;;;;;-145.76;100.00;65039.31;4896054;28;20038;-73
2022/06/10 07:48:12;;;;;;;16.33;5.85;;;;;;;-145.76;100.00;65039.31;4914146;28;23651;-73
2022/06/10 07:50:39;;;;;;;12.65;5.18;;;;;;;-145.76;100.00;65039.31;4894331;28;20146;-74
2022/06/10 07:53:04;;;;;;;14.20;5.93;;;;;;;-145.76;100.00;65039.31;4911249;28;20076;-73
2022/06/10 07:55:30;;;;;;;14.55;5.53;;;;;;;-145.76;100.00;65039.31;4899764;28;20065;-73
2022/06/10 07:57:55;;;;;;;17.35;5.30;;;;;;;-145.76;100.00;65039.31;4910455;28;20041;-73
2022/06/10 08:00:22;;;;;;;17.52;5.20;;;;;;;-145.76;100.00;65039.31;4910803;28;20496;-73
2022/06/10 08:02:47;;;;;;;14.55;5.43;;;;;;;-145.76;100.00;65039.31;4907855;28;20026;-72
2022/06/10 08:05:15;;;;;;;17.67;6.00;;;;;;;-145.76;100.00;65039.31;4899217;28;27482;-73
2022/06/10 08:07:41;;;;;;;15.63;6.47;;;;;;;-145.76;100.00;65039.31;4899819;28;20544;-73
2022/06/10 08:10:10;;;;;;;13.07;5.85;;;;;;;-145.76;100.00;65039.31;4917483;28;20026;-73
2022/06/10 08:12:36;;;;;;;21.30;7.75;;;;;;;-145.76;100.00;65039.31;4901889;28;20042;-73
2022/06/10 08:15:02;;;;;;;16.48;6.53;;;;;;;-145.76;100.00;65039.31;4917956;28;20655;-73
2022/06/10 08:17:27;;;;;;;15.00;6.05;;;;;;;-145.76;100.00;65039.31;4903429;28;20037;-73
2022/06/10 08:19:52;;;;;;;17.92;6.80;;;;;;;-145.76;100.00;65039.31;4916536;28;20908;-73
2022/06/10 08:22:34;;;;;;;14.48;6.05;;;;;;;-145.76;100.00;65039.31;4919384;28;21196;-73
2022/06/10 08:25:00;;;;;;;9.93;5.60;;;;;;;-145.76;100.00;65039.31;4905266;28;20041;-73
2022/06/10 08:27:26;;;;;;;16.95;5.97;;;;;;;-145.76;100.00;65039.31;4918029;28;20540;-73
2022/06/10 08:29:52;;;;;;;13.48;5.57;;;;;;;-145.76;100.00;65039.31;4901169;28;20038;-73
2022/06/10 08:32:17;;;;;;;15.40;5.90;;;;;;;-145.76;100.00;65039.31;4920904;28;20049;-72
2022/06/10 08:34:43;;;;;;;15.68;5.25;;;;;;;-145.76;100.00;65039.31;4903920;28;20050;-71
2022/06/10 08:37:09;;;;;;;19.23;5.90;;;;;;;-145.76;100.00;65039.31;4917448;28;20322;-71
2022/06/10 08:39:35;;;;;;;19.42;5.30;;;;;;;-145.76;100.00;65039.31;4902991;28;20030;-71
2022/06/10 08:42:20;;;;;;;18.17;5.82;;;;;;;-145.76;100.00;65039.31;4920716;28;20038;-72
2022/06/10 08:44:54;;;;;;;17.92;5.00;;;;;;;-145.76;100.00;65039.31;4918542;28;20053;-72
2022/06/10 08:47:47;;;;;;;14.18;4.60;;;;;;;-145.76;100.00;65039.31;4889144;28;20119;-72
2022/06/10 08:50:16;;;;;;;16.83;5.70;;;;;;;-145.76;100.00;65039.31;4918542;28;20026;-73
2022/06/10 08:53:03;;;;;;;13.95;5.43;;;;;;;-145.76;100.00;65039.31;4904570;28;20046;-72
2022/06/10 08:55:38;;;;;;;19.58;5.63;;;;;;;-145.76;100.00;65039.31;4918215;28;20038;-73
2022/06/10 08:58:21;;;;;;;23.02;6.28;;;;;;;-145.76;100.00;65039.31;4900951;28;20442;-72
2022/06/10 09:00:47;;;;;;;;;;;;;;;-145.76;100.00;65039.31;4920167;28;21840;-72
2022/06/10 09:03:27;;;;;;;17.65;5.45;;;;;;;-145.76;100.00;65039.31;4904381;28;20007;-74
2022/06/10 09:05:58;;;;;;;14.20;5.88;;;;;;;-145.76;100.00;65039.31;4917615;28;20038;-74
2022/06/10 09:08:27;;;;;;;15.05;5.70;;;;;;;-145.76;100.00;65039.31;4905583;28;20048;-74
2022/06/10 09:10:58;;;;;;;17.77;6.28;;;;;;;-145.76;100.00;65039.31;4896968;28;20105;-74
2022/06/10 09:13:36;;;;;;;14.50;6.28;;;;;;;-145.76;100.00;65039.31;4898680;28;20504;-74
2022/06/10 09:16:07;;;;;;;12.73;6.13;;;;;;;-145.76;100.00;65039.31;4917141;28;24047;-74
2022/06/10 09:18:56;;;;;;;16.85;7.13;;;;;;;-145.76;100.00;65039.31;4906493;28;20045;-74
2022/06/10 09:21:37;;;;;;;22.02;6.65;;;;;;;-145.76;100.00;65039.31;4918192;28;20122;-75
2022/06/10 09:24:09;;;;;;;15.15;6.30;;;;;;;-145.76;100.00;65039.31;4906808;28;20601;-74
2022/06/10 09:26:39;;;;;;;18.75;5.93;;;;;;;-145.76;100.00;65039.31;4929997;28;20593;-73
2022/06/10 09:29:05;;;;;;;14.02;5.40;;;;;;;-145.76;100.00;65039.31;4918026;28;20038;-71
2022/06/10 09:32:03;;;;;;;18.45;5.85;;;;;;;-145.76;100.00;65039.31;4904911;28;20127;-72
2022/06/10 09:34:39;;;;;;;18.45;5.25;;;;;;;-145.76;100.00;65039.31;4912076;28;20050;-72
2022/06/10 09:37:47;;;;;;;12.85;4.70;;;;;;;-145.76;100.00;65039.31;4886582;28;20056;-71
2022/06/10 09:40:36;;;;;;;14.90;5.25;;;;;;;-145.76;100.00;65039.31;4924639;28;20065;-72
2022/06/10 09:43:17;;;;;;;20.70;5.85;;;;;;;-145.76;100.00;65039.31;4930472;28;20038;-71
2022/06/10 09:46:12;;;;;;;15.43;5.38;;;;;;;-145.76;100.00;65039.31;4920041;28;20520;-71
2022/06/10 09:48:41;;;;;;;13.88;4.88;;;;;;;-145.76;100.00;65039.31;4900452;28;20053;-71
2022/06/10 09:51:32;;;;;;;19.40;5.93;;;;;;;-145.76;100.00;65039.31;4919533;28;20071;-70
2022/06/10 09:54:06;;;;;;;14.45;4.97;;;;;;;-145.76;100.00;65039.31;4907712;28;20525;-70
2022/06/10 09:57:08;;;;;;;15.02;4.88;;;;;;;-145.76;100.00;65039.31;4918518;28;20068;-71
2022/06/10 09:59:44;;;;;;;17.33;4.85;;;;;;;-145.76;100.00;65039.31;4909886;28;22679;-71
2022/06/10 10:02:38;;;;;;;17.65;5.13;;;;;;;-145.76;100.00;65039.31;4922844;28;20129;-70
2022/06/10 10:05:12;;;;;;;13.13;4.93;;;;;;;-145.76;100.00;65039.31;4910998;28;20069;-71
2022/06/10 10:07:51;;;;;;;19.58;5.88;;;;;;;-145.76;100.00;65039.31;4919362;28;20054;-71
2022/06/10 10:10:33;;;;;;;17.25;4.88;;;;;;;-145.76;100.00;65039.31;4902318;28;20045;-71
2022/06/10 10:13:36;;;;;;;18.85;5.75;;;;;;;-145.76;100.00;65039.31;4922116;28;21147;-72
2022/06/10 10:16:20;;;;;;;16.33;5.38;;;;;;;-145.76;100.00;65039.31;4907297;28;20049;-71
2022/06/10 10:19:00;;;;;;;14.88;4.97;;;;;;;-145.76;100.00;65039.31;4921882;28;20037;-72
2022/06/10 10:22:03;;;;;;;18.20;5.82;;;;;;;-145.76;100.00;65039.31;4907912;28;20042;-71
2022/06/10 10:24:31;;;;;;;17.35;5.75;;;;;;;-145.76;100.00;65039.31;4920683;28;20077;-71
2022/06/10 10:26:58;;;;;;;21.35;6.47;;;;;;;-145.76;100.00;65039.31;4901614;28;20037;-71
2022/06/10 10:29:30;;;;;;;17.15;5.60;;;;;;;-145.76;100.00;65039.31;4939774;28;20038;-71
2022/06/10 10:32:10;;;;;;;14.55;5.38;;;;;;;-145.76;100.00;65039.31;4903067;28;20851;-71
2022/06/10 10:34:37;;;;;;;21.23;4.93;;;;;;;-145.76;100.00;65039.31;4921747;28;20081;-71
2022/06/10 10:37:10;;;;;;;15.52;5.35;;;;;;;-145.76;100.00;65039.31;4900517;28;20084;-71
2022/06/10 10:39:38;;;;;;;12.88;3.97;;;;;;;-145.76;100.00;65039.31;4919717;28;20045;-71
2022/06/10 10:42:17;;;;;;;15.60;5.65;;;;;;;-145.76;100.00;65039.31;4905112;28;20050;-71
2022/06/10 10:44:51;;;;;;;20.85;4.70;;;;;;;-145.76;100.00;65039.31;4918095;28;20233;-71
2022/06/10 10:47:24;;;;;;;15.20;5.05;;;;;;;-145.76;100.00;65039.31;4903886;28;21081;-71
2022/06/10 10:50:04;;;;;;;17.40;4.68;;;;;;;-145.76;100.00;65039.31;4920853;28;21144;-71
2022/06/10 10:52:38;;;;;;;17.55;5.00;;;;;;;-145.76;100.00;65039.31;4918436;28;20041;-71
2022/06/10 10:55:28;;;;;;;12.18;4.25;;;;;;;-145.76;100.00;65039.31;4916132;28;20060;-72
2022/06/10 10:58:06;;;;;;;15.45;4.22;;;;;;;-145.76;100.00;65039.31;4914457;28;20171;-73
2022/06/10 11:00:37;;;;;;;14.32;4.93;;;;;;;-145.76;100.00;65039.31;4922331;28;22200;-72
2022/06/10 11:03:03;;;;;;;11.20;4.72;;;;;;;-145.76;100.00;65039.31;4915225;28;22630;-72
2022/06/10 11:05:37;;;;;;;16.50;4.60;;;;;;;-145.76;100.00;65039.31;4897896;28;22094;-72
2022/06/10 11:08:24;;;;;;;9.20;4.03;;;;;;;-145.76;100.00;65039.31;4922290;28;20061;-73
2022/06/10 11:11:22;;;;;;;14.82;4.47;;;;;;;-145.76;100.00;65039.31;4906873;28;20177;-71
2022/06/10 11:13:49;;;;;;;10.05;3.88;;;;;;;-145.76;100.00;65039.31;4919609;28;20056;-71
2022/06/10 11:16:24;;;;;;;18.55;4.25;;;;;;;-145.76;100.00;65039.31;4905287;28;20053;-71
2022/06/10 11:18:52;;;;;;;15.45;4.00;;;;;;;-145.76;100.00;65039.31;4920926;28;20084;-72
2022/06/10 11:21:19;;;;;;;13.35;4.40;;;;;;;-145.76;100.00;65039.31;4884385;28;20041;-71
2022/06/10 11:23:54;;;;;;;13.88;4.03;;;;;;;-145.76;100.00;65039.31;4936674;28;20125;-72
2022/06/10 11:26:22;;;;;;;10.63;3.65;;;;;;;-145.76;100.00;65039.31;4903566;28;20293;-71
2022/06/10 11:28:49;;;;;;;15.07;3.95;;;;;;;-145.76;100.00;65039.31;4916489;28;20258;-71